Terminal Aerodrome Forecast
Issued by NWS

Home | Current Version | Previous Version | Text Only | Print | Product List | Glossary On
Versions: 1 2 3 4 5 6 7 8 9 10 11 12 13
000
FTUS44 KLIX 251740
TAFHDC
TAF
KHDC 251740Z 2518/2618 04006KT P6SM VCSH BKN030 BKN035
      TEMPO 2518/2522 VRB14G24KT 2SM TSRA BKN028CB
     FM260000 07004KT P6SM FEW035 SCT100
     FM261400 09004KT P6SM SCT030=

USA.gov is the U.S. government's official web portal to all federal, state and local government web resources and services.